PRIVATE WETTERSTATION BILLIGHEIM-ALLFELD                       ZURCK
Wetterdaten: Samstag, 30.07.2016
Datum Zeit Temp. A. Temp. A. min Temp. A. max Feuchte A. Luftdruck Regen Wind Richtung Richtung Sonnenschein ET Solar Taupunkt Windchill Windben Empfang
30.07.2016 00:00 18,1 C 18,1 C 18,2 C 83 % 1013,2 hPa 0,0 l/m 1,6 km/h (1 Bft) S-SO 157 0 min 0,025 mm 0 W/m 15,2 C 18,1 C 4,8 km/h (1 Bft) 100 %
30.07.2016 00:10 18,0 C 18,0 C 18,1 C 83 % 1013,2 hPa 0,0 l/m 0,0 km/h (0 Bft) S-SO 157 0 min 0,000 mm 0 W/m 15,1 C 18,0 C 1,6 km/h (1 Bft) 100 %
30.07.2016 00:20 17,9 C 17,9 C 18,0 C 83 % 1013,2 hPa 0,0 l/m 0,0 km/h (0 Bft) N 0 0 min 0,000 mm 0 W/m 15,0 C 17,9 C 0,0 km/h (0 Bft) 99 %
30.07.2016 00:30 18,0 C 17,9 C 18,0 C 83 % 1013,1 hPa 0,0 l/m 0,0 km/h (0 Bft) N 0 0 min 0,000 mm 0 W/m 15,1 C 18,0 C 0,0 km/h (0 Bft) 100 %
30.07.2016 00:40 18,0 C 17,9 C 18,1 C 83 % 1013,1 hPa 0,0 l/m 0,0 km/h (0 Bft) N 0 0 min 0,000 mm 0 W/m 15,1 C 18,0 C 0,0 km/h (0 Bft) 100 %
30.07.2016 00:50 18,0 C 18,0 C 18,1 C 83 % 1013,2 hPa 0,0 l/m 0,0 km/h (0 Bft) S-SO 157 0 min 0,000 mm 0 W/m 15,1 C 18,0 C 1,6 km/h (1 Bft) 99 %
30.07.2016 01:00 17,9 C 17,9 C 18,0 C 84 % 1013,0 hPa 0,0 l/m 0,0 km/h (0 Bft) S-SO 157 0 min 0,025 mm 0 W/m 15,2 C 17,9 C 1,6 km/h (1 Bft) 100 %
30.07.2016 01:10 18,0 C 17,9 C 18,0 C 84 % 1013,0 hPa 0,0 l/m 0,0 km/h (0 Bft) S-SO 157 0 min 0,000 mm 0 W/m 15,3 C 18,0 C 3,2 km/h (1 Bft) 99 %
30.07.2016 01:20 18,1 C 18,0 C 18,1 C 84 % 1013,1 hPa 0,0 l/m 0,0 km/h (0 Bft) S-SO 157 0 min 0,000 mm 0 W/m 15,4 C 18,1 C 6,4 km/h (2 Bft) 99 %
30.07.2016 01:30 18,2 C 18,1 C 18,2 C 84 % 1013,1 hPa 0,0 l/m 0,0 km/h (0 Bft) S-SO 157 0 min 0,000 mm 0 W/m 15,4 C 18,2 C 4,8 km/h (1 Bft) 99 %
30.07.2016 01:40 18,3 C 18,2 C 18,3 C 84 % 1013,2 hPa 0,0 l/m 0,0 km/h (0 Bft) S-SO 157 0 min 0,000 mm 0 W/m 15,5 C 18,3 C 1,6 km/h (1 Bft) 100 %
30.07.2016 01:50 18,3 C 18,3 C 18,3 C 84 % 1013,2 hPa 0,0 l/m 0,0 km/h (0 Bft) S-SO 157 0 min 0,000 mm 0 W/m 15,5 C 18,3 C 1,6 km/h (1 Bft) 99 %
30.07.2016 02:00 18,3 C 18,3 C 18,3 C 84 % 1013,1 hPa 0,0 l/m 0,0 km/h (0 Bft) N 0 0 min 0,025 mm 0 W/m 15,5 C 18,3 C 0,0 km/h (0 Bft) 100 %
30.07.2016 02:10 18,2 C 18,2 C 18,3 C 84 % 1013,1 hPa 0,0 l/m 0,0 km/h (0 Bft) S-SO 157 0 min 0,000 mm 0 W/m 15,4 C 18,2 C 3,2 km/h (1 Bft) 99 %
30.07.2016 02:20 18,2 C 18,2 C 18,3 C 84 % 1013,1 hPa 0,0 l/m 1,6 km/h (1 Bft) S-SO 157 0 min 0,000 mm 0 W/m 15,4 C 18,2 C 6,4 km/h (2 Bft) 99 %
30.07.2016 02:30 18,1 C 18,1 C 18,2 C 84 % 1013,1 hPa 0,0 l/m 0,0 km/h (0 Bft) S-SO 157 0 min 0,000 mm 0 W/m 15,4 C 18,1 C 3,2 km/h (1 Bft) 100 %
30.07.2016 02:40 18,0 C 18,0 C 18,1 C 84 % 1013,1 hPa 0,0 l/m 0,0 km/h (0 Bft) S-SO 157 0 min 0,000 mm 0 W/m 15,3 C 18,0 C 3,2 km/h (1 Bft) 100 %
30.07.2016 02:50 17,9 C 17,9 C 18,1 C 84 % 1013,0 hPa 0,0 l/m 0,0 km/h (0 Bft) N 0 0 min 0,000 mm 0 W/m 15,2 C 17,9 C 0,0 km/h (0 Bft) 98 %
30.07.2016 03:00 17,9 C 17,9 C 17,9 C 84 % 1013,0 hPa 0,0 l/m 0,0 km/h (0 Bft) S-SO 157 0 min 0,025 mm 0 W/m 15,2 C 17,9 C 1,6 km/h (1 Bft) 100 %
30.07.2016 03:10 17,8 C 17,8 C 17,9 C 84 % 1013,0 hPa 0,0 l/m 0,0 km/h (0 Bft) S-SO 157 0 min 0,000 mm 0 W/m 15,1 C 17,8 C 4,8 km/h (1 Bft) 99 %
30.07.2016 03:20 17,8 C 17,8 C 17,8 C 85 % 1013,0 hPa 0,0 l/m 0,0 km/h (0 Bft) N 0 0 min 0,000 mm 0 W/m 15,2 C 17,8 C 0,0 km/h (0 Bft) 100 %
30.07.2016 03:30 17,6 C 17,6 C 17,8 C 85 % 1013,0 hPa 0,0 l/m 0,0 km/h (0 Bft) S-SO 157 0 min 0,000 mm 0 W/m 15,0 C 17,6 C 4,8 km/h (1 Bft) 100 %
30.07.2016 03:40 17,3 C 17,3 C 17,6 C 86 % 1013,1 hPa 0,0 l/m 1,6 km/h (1 Bft) S-SO 157 0 min 0,000 mm 0 W/m 14,9 C 17,3 C 4,8 km/h (1 Bft) 100 %
30.07.2016 03:50 17,3 C 17,2 C 17,3 C 87 % 1012,9 hPa 0,0 l/m 0,0 km/h (0 Bft) S-SO 157 0 min 0,000 mm 0 W/m 15,1 C 17,3 C 3,2 km/h (1 Bft) 100 %
30.07.2016 04:00 17,2 C 17,2 C 17,3 C 87 % 1012,9 hPa 0,0 l/m 0,0 km/h (0 Bft) S-SO 157 0 min 0,025 mm 0 W/m 15,0 C 17,2 C 3,2 km/h (1 Bft) 98 %
30.07.2016 04:10 17,1 C 17,1 C 17,2 C 86 % 1012,9 hPa 0,0 l/m 0,0 km/h (0 Bft) N 0 0 min 0,000 mm 0 W/m 14,7 C 17,1 C 0,0 km/h (0 Bft) 98 %
30.07.2016 04:20 16,8 C 16,8 C 17,0 C 87 % 1012,8 hPa 0,0 l/m 0,0 km/h (0 Bft) N 0 0 min 0,000 mm 0 W/m 14,6 C 16,8 C 0,0 km/h (0 Bft) 90 %
30.07.2016 04:30 16,5 C 16,5 C 16,8 C 87 % 1012,8 hPa 0,0 l/m 0,0 km/h (0 Bft) N 0 0 min 0,000 mm 0 W/m 14,3 C 16,5 C 0,0 km/h (0 Bft) 99 %
30.07.2016 04:40 16,2 C 16,2 C 16,5 C 88 % 1012,8 hPa 0,0 l/m 0,0 km/h (0 Bft) N 0 0 min 0,000 mm 0 W/m 14,2 C 16,2 C 0,0 km/h (0 Bft) 99 %
30.07.2016 04:50 15,9 C 15,9 C 16,2 C 88 % 1012,9 hPa 0,0 l/m 0,0 km/h (0 Bft) N 0 0 min 0,000 mm 0 W/m 13,9 C 15,9 C 0,0 km/h (0 Bft) 100 %
30.07.2016 05:00 15,7 C 15,7 C 15,9 C 88 % 1012,9 hPa 0,0 l/m 0,0 km/h (0 Bft) N 0 0 min 0,000 mm 0 W/m 13,7 C 15,7 C 0,0 km/h (0 Bft) 100 %
30.07.2016 05:10 15,6 C 15,6 C 15,7 C 89 % 1012,9 hPa 0,0 l/m 0,0 km/h (0 Bft) N 0 0 min 0,000 mm 0 W/m 13,8 C 15,6 C 0,0 km/h (0 Bft) 99 %
30.07.2016 05:20 15,5 C 15,5 C 15,6 C 89 % 1012,9 hPa 0,0 l/m 0,0 km/h (0 Bft) N 0 0 min 0,000 mm 0 W/m 13,7 C 15,5 C 0,0 km/h (0 Bft) 100 %
30.07.2016 05:30 15,4 C 15,4 C 15,5 C 89 % 1012,9 hPa 0,0 l/m 0,0 km/h (0 Bft) N 0 0 min 0,000 mm 0 W/m 13,6 C 15,4 C 0,0 km/h (0 Bft) 100 %
30.07.2016 05:40 15,3 C 15,3 C 15,4 C 89 % 1012,8 hPa 0,0 l/m 0,0 km/h (0 Bft) N 0 0 min 0,000 mm 0 W/m 13,5 C 15,3 C 0,0 km/h (0 Bft) 98 %
30.07.2016 05:50 15,3 C 15,3 C 15,3 C 90 % 1012,9 hPa 0,0 l/m 0,0 km/h (0 Bft) N 0 0 min 0,000 mm 0 W/m 13,7 C 15,3 C 0,0 km/h (0 Bft) 100 %
30.07.2016 06:00 15,1 C 15,1 C 15,3 C 89 % 1012,8 hPa 0,0 l/m 0,0 km/h (0 Bft) S-SO 157 0 min 0,000 mm 5 W/m 13,3 C 15,1 C 1,6 km/h (1 Bft) 98 %
30.07.2016 06:10 15,1 C 15,1 C 15,2 C 90 % 1012,8 hPa 0,0 l/m 0,0 km/h (0 Bft) N 0 0 min 0,000 mm 7 W/m 13,5 C 15,1 C 0,0 km/h (0 Bft) 100 %
30.07.2016 06:20 15,1 C 15,1 C 15,1 C 90 % 1012,8 hPa 0,0 l/m 0,0 km/h (0 Bft) N 0 0 min 0,000 mm 9 W/m 13,5 C 15,1 C 0,0 km/h (0 Bft) 99 %
30.07.2016 06:30 15,0 C 15,0 C 15,1 C 90 % 1012,8 hPa 0,0 l/m 0,0 km/h (0 Bft) N 0 0 min 0,000 mm 12 W/m 13,4 C 15,0 C 0,0 km/h (0 Bft) 100 %
30.07.2016 06:40 14,9 C 14,8 C 15,0 C 90 % 1012,8 hPa 0,0 l/m 0,0 km/h (0 Bft) S-SO 157 0 min 0,000 mm 14 W/m 13,3 C 14,9 C 3,2 km/h (1 Bft) 99 %
30.07.2016 06:50 15,6 C 14,9 C 15,6 C 90 % 1012,8 hPa 0,0 l/m 1,6 km/h (1 Bft) S-SO 157 0 min 0,000 mm 14 W/m 14,0 C 15,6 C 4,8 km/h (1 Bft) 100 %
30.07.2016 07:00 16,1 C 15,6 C 16,1 C 90 % 1012,8 hPa 0,0 l/m 3,2 km/h (1 Bft) SO 135 0 min 0,000 mm 16 W/m 14,5 C 16,1 C 8,0 km/h (2 Bft) 99 %
30.07.2016 07:10 16,4 C 16,1 C 16,4 C 90 % 1012,8 hPa 0,0 l/m 1,6 km/h (1 Bft) SO 135 0 min 0,000 mm 19 W/m 14,8 C 16,4 C 8,0 km/h (2 Bft) 100 %
30.07.2016 07:20 16,6 C 16,4 C 16,6 C 89 % 1012,7 hPa 0,0 l/m 0,0 km/h (0 Bft) SO 135 0 min 0,000 mm 35 W/m 14,8 C 16,6 C 1,6 km/h (1 Bft) 99 %
30.07.2016 07:30 16,7 C 16,5 C 16,7 C 89 % 1012,7 hPa 0,0 l/m 1,6 km/h (1 Bft) SO 135 0 min 0,000 mm 21 W/m 14,9 C 16,7 C 6,4 km/h (2 Bft) 99 %
30.07.2016 07:40 16,7 C 16,7 C 16,7 C 89 % 1013,0 hPa 0,0 l/m 0,0 km/h (0 Bft) S-SO 157 0 min 0,000 mm 23 W/m 14,9 C 16,7 C 1,6 km/h (1 Bft) 100 %
30.07.2016 07:50 16,7 C 16,7 C 16,7 C 89 % 1013,0 hPa 0,0 l/m 1,6 km/h (1 Bft) S-SO 157 0 min 0,000 mm 25 W/m 14,9 C 16,7 C 6,4 km/h (2 Bft) 100 %
30.07.2016 08:00 16,9 C 16,7 C 16,9 C 90 % 1013,0 hPa 0,0 l/m 0,0 km/h (0 Bft) S 180 0 min 0,025 mm 35 W/m 15,2 C 16,9 C 1,6 km/h (1 Bft) 100 %
30.07.2016 08:10 17,4 C 16,9 C 17,4 C 89 % 1012,9 hPa 0,0 l/m 0,0 km/h (0 Bft) N 0 0 min 0,000 mm 107 W/m 15,6 C 17,4 C 0,0 km/h (0 Bft) 100 %
30.07.2016 08:20 17,7 C 17,4 C 17,7 C 89 % 1012,9 hPa 0,0 l/m 1,6 km/h (1 Bft) S-SO 157 0 min 0,000 mm 84 W/m 15,9 C 17,7 C 8,0 km/h (2 Bft) 100 %
30.07.2016 08:30 18,2 C 17,7 C 18,2 C 88 % 1013,0 hPa 0,0 l/m 0,0 km/h (0 Bft) S 180 10 min 0,000 mm 183 W/m 16,2 C 18,2 C 6,4 km/h (2 Bft) 100 %
30.07.2016 08:40 18,7 C 18,2 C 18,7 C 88 % 1013,0 hPa 0,0 l/m 0,0 km/h (0 Bft) S 180 10 min 0,000 mm 179 W/m 16,7 C 18,7 C 8,0 km/h (2 Bft) 100 %
30.07.2016 08:50 19,2 C 18,7 C 19,2 C 87 % 1013,0 hPa 0,0 l/m 0,0 km/h (0 Bft) S 180 10 min 0,000 mm 225 W/m 17,0 C 19,2 C 6,4 km/h (2 Bft) 99 %
30.07.2016 09:00 20,0 C 19,3 C 20,0 C 85 % 1013,0 hPa 0,0 l/m 0,0 km/h (0 Bft) S-SW 202 10 min 0,102 mm 251 W/m 17,4 C 20,0 C 6,4 km/h (2 Bft) 100 %
30.07.2016 09:10 20,4 C 20,0 C 20,4 C 83 % 1012,8 hPa 0,0 l/m 0,0 km/h (0 Bft) S-SO 157 10 min 0,000 mm 504 W/m 17,4 C 20,4 C 6,4 km/h (2 Bft) 100 %
30.07.2016 09:20 21,4 C 20,4 C 21,4 C 82 % 1012,8 hPa 0,0 l/m 0,0 km/h (0 Bft) S-SW 202 10 min 0,000 mm 499 W/m 18,2 C 21,4 C 8,0 km/h (2 Bft) 100 %
30.07.2016 09:30 22,4 C 21,5 C 22,4 C 79 % 1012,7 hPa 0,0 l/m 0,0 km/h (0 Bft) S-SW 202 10 min 0,000 mm 524 W/m 18,6 C 22,4 C 4,8 km/h (1 Bft) 100 %
30.07.2016 09:40 23,2 C 22,5 C 23,2 C 73 % 1012,7 hPa 0,0 l/m 1,6 km/h (1 Bft) W-SW 247 10 min 0,000 mm 552 W/m 18,1 C 23,2 C 9,7 km/h (2 Bft) 99 %
30.07.2016 09:50 23,6 C 23,2 C 23,6 C 72 % 1012,9 hPa 0,0 l/m 3,2 km/h (1 Bft) W 270 10 min 0,000 mm 564 W/m 18,2 C 23,6 C 16,1 km/h (3 Bft) 100 %
30.07.2016 10:00 23,9 C 23,6 C 23,9 C 68 % 1012,8 hPa 0,0 l/m 3,2 km/h (1 Bft) SW 225 10 min 0,305 mm 619 W/m 17,6 C 23,9 C 16,1 km/h (3 Bft) 100 %
30.07.2016 10:10 24,3 C 23,9 C 24,4 C 67 % 1012,8 hPa 0,0 l/m 3,2 km/h (1 Bft) W 270 10 min 0,000 mm 770 W/m 17,8 C 24,3 C 14,5 km/h (3 Bft) 100 %
30.07.2016 10:20 23,8 C 23,8 C 24,3 C 68 % 1012,9 hPa 0,0 l/m 3,2 km/h (1 Bft) W-SW 247 10 min 0,000 mm 677 W/m 17,5 C 23,8 C 14,5 km/h (3 Bft) 99 %
30.07.2016 10:30 23,2 C 23,2 C 23,8 C 69 % 1012,9 hPa 0,0 l/m 3,2 km/h (1 Bft) SW 225 10 min 0,000 mm 234 W/m 17,2 C 23,2 C 16,1 km/h (3 Bft) 100 %
30.07.2016 10:40 23,3 C 23,1 C 23,3 C 70 % 1012,7 hPa 0,0 l/m 1,6 km/h (1 Bft) W-NW 292 10 min 0,000 mm 816 W/m 17,5 C 23,3 C 17,7 km/h (3 Bft) 100 %
30.07.2016 10:50 23,8 C 23,3 C 23,8 C 68 % 1012,6 hPa 0,0 l/m 4,8 km/h (1 Bft) W-NW 292 10 min 0,000 mm 278 W/m 17,5 C 23,8 C 16,1 km/h (3 Bft) 100 %
30.07.2016 11:00 24,2 C 23,8 C 24,2 C 69 % 1012,6 hPa 0,0 l/m 3,2 km/h (1 Bft) SW 225 10 min 0,305 mm 819 W/m 18,1 C 24,2 C 14,5 km/h (3 Bft) 99 %
30.07.2016 11:10 24,7 C 24,2 C 24,7 C 67 % 1012,5 hPa 0,0 l/m 4,8 km/h (1 Bft) SW 225 10 min 0,000 mm 911 W/m 18,1 C 24,7 C 16,1 km/h (3 Bft) 100 %
30.07.2016 11:20 24,5 C 24,4 C 24,7 C 70 % 1012,4 hPa 0,0 l/m 1,6 km/h (1 Bft) W 270 10 min 0,000 mm 865 W/m 18,7 C 24,5 C 14,5 km/h (3 Bft) 99 %
30.07.2016 11:30 24,4 C 24,4 C 24,6 C 67 % 1012,5 hPa 0,0 l/m 4,8 km/h (1 Bft) W-NW 292 10 min 0,000 mm 830 W/m 17,9 C 24,4 C 16,1 km/h (3 Bft) 98 %
30.07.2016 11:40 24,2 C 24,2 C 24,4 C 68 % 1012,4 hPa 0,0 l/m 1,6 km/h (1 Bft) SW 225 10 min 0,000 mm 1016 W/m 17,9 C 24,2 C 11,3 km/h (2 Bft) 99 %
30.07.2016 11:50 24,7 C 24,2 C 24,7 C 67 % 1012,3 hPa 0,0 l/m 4,8 km/h (1 Bft) SW 225 10 min 0,000 mm 970 W/m 18,1 C 24,7 C 16,1 km/h (3 Bft) 99 %
30.07.2016 12:00 25,4 C 24,7 C 25,4 C 64 % 1012,3 hPa 0,0 l/m 11,3 km/h (2 Bft) S-SW 202 10 min 0,381 mm 1069 W/m 18,1 C 24,4 C 24,1 km/h (4 Bft) 99 %
30.07.2016 12:10 25,4 C 25,3 C 25,4 C 66 % 1012,3 hPa 0,0 l/m 6,4 km/h (2 Bft) S-SW 202 10 min 0,000 mm 993 W/m 18,6 C 25,4 C 24,1 km/h (4 Bft) 99 %
30.07.2016 12:20 25,4 C 25,4 C 25,6 C 63 % 1012,3 hPa 0,0 l/m 6,4 km/h (2 Bft) W-SW 247 10 min 0,000 mm 1044 W/m 17,8 C 25,4 C 24,1 km/h (4 Bft) 97 %
30.07.2016 12:30 25,1 C 25,1 C 25,4 C 65 % 1012,3 hPa 0,0 l/m 6,4 km/h (2 Bft) W 270 10 min 0,000 mm 1044 W/m 18,0 C 25,1 C 17,7 km/h (3 Bft) 97 %
30.07.2016 12:40 25,2 C 25,0 C 25,2 C 64 % 1012,3 hPa 0,0 l/m 6,4 km/h (2 Bft) W 270 10 min 0,000 mm 1118 W/m 17,9 C 25,2 C 16,1 km/h (3 Bft) 98 %
30.07.2016 12:50 25,5 C 25,2 C 25,5 C 63 % 1012,2 hPa 0,0 l/m 8,0 km/h (2 Bft) W-NW 292 10 min 0,000 mm 1106 W/m 17,9 C 25,1 C 17,7 km/h (3 Bft) 97 %
30.07.2016 13:00 25,8 C 25,5 C 25,8 C 66 % 1012,1 hPa 0,0 l/m 6,4 km/h (2 Bft) W-NW 292 10 min 0,406 mm 1014 W/m 19,0 C 25,8 C 20,9 km/h (4 Bft) 98 %
30.07.2016 13:10 26,1 C 25,8 C 26,2 C 60 % 1012,1 hPa 0,0 l/m 9,7 km/h (2 Bft) W 270 10 min 0,000 mm 1055 W/m 17,7 C 25,4 C 22,5 km/h (4 Bft) 97 %
30.07.2016 13:20 26,4 C 26,1 C 26,4 C 57 % 1012,1 hPa 0,0 l/m 9,7 km/h (2 Bft) W 270 10 min 0,000 mm 1032 W/m 17,2 C 25,8 C 25,7 km/h (4 Bft) 98 %
30.07.2016 13:30 26,2 C 26,1 C 26,4 C 60 % 1012,1 hPa 0,0 l/m 8,1 km/h (2 Bft) W-SW 243 10 min 0,000 mm 977 W/m 17,8 C 25,8 C 17,7 km/h (3 Bft) 99 %
30.07.2016 13:40 26,2 C 26,1 C 26,2 C 60 % 1012,0 hPa 0,0 l/m 9,4 km/h (2 Bft) SW 236 10 min 0,000 mm 988 W/m 17,8 C 25,6 C 25,7 km/h (4 Bft) 100 %
30.07.2016 13:50 26,6 C 26,2 C 26,6 C 59 % 1011,9 hPa 0,0 l/m 7,0 km/h (2 Bft) W 259 10 min 0,000 mm 940 W/m 17,9 C 26,5 C 22,5 km/h (4 Bft) 100 %
30.07.2016 14:00 26,6 C 26,6 C 26,8 C 57 % 1012,0 hPa 0,0 l/m 6,4 km/h (2 Bft) W-NW 298 10 min 0,000 mm 225 W/m 17,4 C 26,6 C 19,3 km/h (3 Bft) 100 %
30.07.2016 14:10 26,2 C 26,2 C 26,6 C 60 % 1011,9 hPa 0,0 l/m 6,8 km/h (2 Bft) W-SW 254 10 min 0,485 mm 223 W/m 17,8 C 26,1 C 19,3 km/h (3 Bft) 100 %
30.07.2016 14:20 25,8 C 25,8 C 26,2 C 57 % 1011,9 hPa 0,0 l/m 4,9 km/h (1 Bft) W 259 10 min 0,000 mm 246 W/m 16,6 C 25,8 C 17,7 km/h (3 Bft) 100 %
30.07.2016 14:30 25,8 C 25,6 C 25,8 C 60 % 1011,8 hPa 0,0 l/m 7,7 km/h (2 Bft) S-SW 211 10 min 0,000 mm 1153 W/m 17,4 C 25,5 C 22,5 km/h (4 Bft) 100 %
30.07.2016 14:40 26,0 C 25,8 C 26,0 C 60 % 1011,9 hPa 0,0 l/m 6,8 km/h (2 Bft) W 273 10 min 0,000 mm 1025 W/m 17,6 C 25,9 C 22,5 km/h (4 Bft) 100 %
30.07.2016 14:50 26,0 C 26,0 C 26,0 C 61 % 1011,9 hPa 0,0 l/m 5,3 km/h (1 Bft) W-SW 242 10 min 0,000 mm 406 W/m 17,9 C 26,0 C 17,7 km/h (3 Bft) 100 %
30.07.2016 15:00 26,2 C 26,0 C 26,2 C 59 % 1011,9 hPa 0,0 l/m 9,2 km/h (2 Bft) S-SW 193 10 min 0,355 mm 332 W/m 17,5 C 25,6 C 27,4 km/h (4 Bft) 100 %
30.07.2016 15:10 26,7 C 26,2 C 26,7 C 60 % 1011,9 hPa 0,0 l/m 6,2 km/h (2 Bft) W 263 10 min 0,000 mm 636 W/m 18,3 C 26,7 C 19,3 km/h (3 Bft) 100 %
30.07.2016 15:20 26,8 C 26,7 C 26,8 C 60 % 1011,8 hPa 0,0 l/m 4,6 km/h (1 Bft) W-SW 245 10 min 0,000 mm 793 W/m 18,4 C 26,8 C 19,3 km/h (3 Bft) 100 %
30.07.2016 15:30 27,2 C 26,8 C 27,2 C 60 % 1011,8 hPa 0,0 l/m 7,8 km/h (2 Bft) W-NW 303 10 min 0,000 mm 339 W/m 18,7 C 26,9 C 20,9 km/h (4 Bft) 100 %
30.07.2016 15:40 26,9 C 26,9 C 27,2 C 59 % 1011,8 hPa 0,0 l/m 10,2 km/h (2 Bft) W 261 0 min 0,000 mm 128 W/m 18,2 C 26,2 C 20,9 km/h (4 Bft) 100 %
30.07.2016 15:50 26,9 C 26,9 C 26,9 C 60 % 1011,6 hPa 0,0 l/m 4,7 km/h (1 Bft) W 266 10 min 0,000 mm 176 W/m 18,5 C 26,9 C 16,1 km/h (3 Bft) 100 %
30.07.2016 16:00 26,6 C 26,6 C 26,9 C 60 % 1011,6 hPa 0,0 l/m 5,9 km/h (2 Bft) W-SW 253 10 min 0,280 mm 336 W/m 18,2 C 26,6 C 17,7 km/h (3 Bft) 100 %
30.07.2016 16:10 26,7 C 26,5 C 26,7 C 61 % 1011,5 hPa 0,0 l/m 5,1 km/h (1 Bft) W 259 10 min 0,000 mm 278 W/m 18,5 C 26,7 C 17,7 km/h (3 Bft) 100 %
30.07.2016 16:20 26,3 C 26,3 C 26,7 C 59 % 1011,5 hPa 0,0 l/m 6,2 km/h (2 Bft) W-SW 258 10 min 0,000 mm 197 W/m 17,6 C 26,3 C 19,3 km/h (3 Bft) 100 %
30.07.2016 16:30 26,0 C 26,0 C 26,3 C 61 % 1011,5 hPa 0,0 l/m 6,0 km/h (2 Bft) W-NW 292 10 min 0,000 mm 499 W/m 17,9 C 26,0 C 14,5 km/h (3 Bft) 100 %
30.07.2016 16:40 26,4 C 26,0 C 26,4 C 59 % 1011,4 hPa 0,0 l/m 9,4 km/h (2 Bft) W 263 10 min 0,000 mm 192 W/m 17,7 C 25,8 C 20,9 km/h (4 Bft) 100 %
30.07.2016 16:50 26,2 C 26,2 C 26,5 C 58 % 1011,3 hPa 0,0 l/m 10,2 km/h (2 Bft) S-SW 209 10 min 0,000 mm 207 W/m 17,3 C 25,5 C 24,1 km/h (4 Bft) 100 %
30.07.2016 17:00 26,0 C 26,0 C 26,2 C 59 % 1011,3 hPa 0,0 l/m 5,8 km/h (2 Bft) W-NW 298 0 min 0,228 mm 146 W/m 17,4 C 26,0 C 19,3 km/h (3 Bft) 100 %
30.07.2016 17:10 26,0 C 26,0 C 26,0 C 60 % 1011,3 hPa 0,0 l/m 6,1 km/h (2 Bft) SW 229 0 min 0,000 mm 135 W/m 17,6 C 26,0 C 17,7 km/h (3 Bft) 100 %
30.07.2016 17:20 26,1 C 25,9 C 26,1 C 59 % 1011,2 hPa 0,0 l/m 7,0 km/h (2 Bft) W-NW 296 0 min 0,000 mm 118 W/m 17,4 C 26,0 C 19,3 km/h (3 Bft) 100 %
30.07.2016 17:30 26,3 C 26,1 C 26,3 C 58 % 1011,3 hPa 0,0 l/m 7,8 km/h (2 Bft) SW 221 0 min 0,000 mm 100 W/m 17,4 C 26,0 C 22,5 km/h (4 Bft) 100 %
30.07.2016 17:40 26,5 C 26,3 C 26,5 C 57 % 1011,3 hPa 0,0 l/m 6,0 km/h (2 Bft) NW 313 10 min 0,000 mm 178 W/m 17,3 C 26,5 C 16,1 km/h (3 Bft) 100 %
30.07.2016 17:50 26,5 C 26,5 C 26,6 C 58 % 1011,2 hPa 0,0 l/m 6,2 km/h (2 Bft) W 266 0 min 0,000 mm 107 W/m 17,5 C 26,5 C 20,9 km/h (4 Bft) 100 %
30.07.2016 18:00 26,2 C 26,2 C 26,5 C 58 % 1011,1 hPa 0,0 l/m 5,8 km/h (2 Bft) W 263 0 min 0,127 mm 113 W/m 17,3 C 26,2 C 16,1 km/h (3 Bft) 100 %
30.07.2016 18:10 26,0 C 26,0 C 26,2 C 59 % 1011,0 hPa 0,0 l/m 4,4 km/h (1 Bft) W 267 0 min 0,000 mm 95 W/m 17,4 C 26,0 C 11,3 km/h (2 Bft) 99 %
30.07.2016 18:20 25,8 C 25,8 C 26,0 C 60 % 1011,0 hPa 0,0 l/m 2,0 km/h (1 Bft) W-NW 293 0 min 0,000 mm 60 W/m 17,4 C 25,8 C 9,7 km/h (2 Bft) 100 %
30.07.2016 18:30 25,6 C 25,6 C 25,8 C 62 % 1010,9 hPa 0,0 l/m 2,2 km/h (1 Bft) W-NW 292 0 min 0,000 mm 69 W/m 17,8 C 25,6 C 8,0 km/h (2 Bft) 100 %
30.07.2016 18:40 25,4 C 25,4 C 25,6 C 62 % 1010,9 hPa 0,0 l/m 3,2 km/h (1 Bft) NW 306 0 min 0,000 mm 53 W/m 17,6 C 25,4 C 8,0 km/h (2 Bft) 100 %
30.07.2016 18:50 25,1 C 25,1 C 25,4 C 64 % 1010,8 hPa 0,0 l/m 2,6 km/h (1 Bft) NW 315 0 min 0,000 mm 86 W/m 17,8 C 25,1 C 11,3 km/h (2 Bft) 100 %
30.07.2016 19:00 25,2 C 25,1 C 25,2 C 62 % 1010,7 hPa 0,0 l/m 5,9 km/h (2 Bft) W-NW 302 0 min 0,076 mm 81 W/m 17,4 C 25,2 C 14,5 km/h (3 Bft) 100 %
30.07.2016 19:10 25,3 C 25,1 C 25,3 C 61 % 1010,8 hPa 0,0 l/m 3,9 km/h (1 Bft) W-NW 298 0 min 0,000 mm 83 W/m 17,2 C 25,3 C 11,3 km/h (2 Bft) 100 %
30.07.2016 19:20 25,3 C 25,3 C 25,3 C 62 % 1010,7 hPa 0,0 l/m 6,0 km/h (2 Bft) NW 310 0 min 0,000 mm 76 W/m 17,5 C 25,3 C 16,1 km/h (3 Bft) 100 %
30.07.2016 19:30 25,3 C 25,3 C 25,3 C 62 % 1010,7 hPa 0,0 l/m 2,1 km/h (1 Bft) W-NW 302 0 min 0,000 mm 74 W/m 17,5 C 25,3 C 9,7 km/h (2 Bft) 100 %
30.07.2016 19:40 25,2 C 25,2 C 25,3 C 62 % 1010,7 hPa 0,0 l/m 1,8 km/h (1 Bft) W-NW 295 0 min 0,000 mm 60 W/m 17,4 C 25,2 C 9,7 km/h (2 Bft) 100 %
30.07.2016 19:50 25,0 C 25,0 C 25,2 C 64 % 1010,7 hPa 0,0 l/m 5,4 km/h (1 Bft) NW 321 0 min 0,000 mm 46 W/m 17,7 C 25,0 C 11,3 km/h (2 Bft) 100 %
30.07.2016 20:00 24,8 C 24,8 C 25,0 C 65 % 1010,7 hPa 0,0 l/m 2,9 km/h (1 Bft) NW 311 0 min 0,077 mm 37 W/m 17,8 C 24,8 C 9,7 km/h (2 Bft) 100 %
30.07.2016 20:10 24,6 C 24,6 C 24,8 C 66 % 1010,7 hPa 0,0 l/m 0,8 km/h (0 Bft) N-NW 335 0 min 0,000 mm 32 W/m 17,8 C 24,6 C 8,0 km/h (2 Bft) 100 %
30.07.2016 20:20 24,3 C 24,3 C 24,6 C 65 % 1010,7 hPa 0,0 l/m 3,8 km/h (1 Bft) NW 315 0 min 0,000 mm 32 W/m 17,3 C 24,3 C 11,3 km/h (2 Bft) 100 %
30.07.2016 20:30 24,1 C 24,1 C 24,3 C 66 % 1010,8 hPa 0,0 l/m 3,7 km/h (1 Bft) NW 311 0 min 0,000 mm 25 W/m 17,3 C 24,1 C 9,7 km/h (2 Bft) 100 %
30.07.2016 20:40 23,7 C 23,7 C 24,1 C 67 % 1010,8 hPa 0,0 l/m 0,7 km/h (0 Bft) N-NW 329 0 min 0,000 mm 16 W/m 17,2 C 23,7 C 8,0 km/h (2 Bft) 100 %
30.07.2016 20:50 23,2 C 23,2 C 23,7 C 72 % 1010,8 hPa 0,0 l/m 0,0 km/h (0 Bft) N-NW 329 0 min 0,000 mm 11 W/m 17,9 C 23,2 C 1,6 km/h (1 Bft) 100 %
30.07.2016 21:00 22,6 C 22,6 C 23,2 C 73 % 1010,7 hPa 0,0 l/m 0,0 km/h (0 Bft) N-NW 327 0 min 0,025 mm 7 W/m 17,5 C 22,6 C 1,6 km/h (1 Bft) 100 %
30.07.2016 21:10 22,1 C 22,1 C 22,6 C 73 % 1010,8 hPa 0,0 l/m 0,0 km/h (0 Bft) N 0 0 min 0,000 mm 5 W/m 17,0 C 22,1 C 0,0 km/h (0 Bft) 97 %
30.07.2016 21:20 21,7 C 21,7 C 22,1 C 73 % 1010,8 hPa 0,0 l/m 0,0 km/h (0 Bft) N 0 0 min 0,000 mm 0 W/m 16,6 C 21,7 C 0,0 km/h (0 Bft) 97 %
30.07.2016 21:30 21,4 C 21,4 C 21,7 C 74 % 1011,0 hPa 0,0 l/m 0,0 km/h (0 Bft) N 0 0 min 0,000 mm 0 W/m 16,6 C 21,4 C 0,0 km/h (0 Bft) 97 %
30.07.2016 21:40 21,1 C 21,1 C 21,4 C 76 % 1011,2 hPa 0,0 l/m 0,0 km/h (0 Bft) N 0 0 min 0,000 mm 0 W/m 16,7 C 21,1 C 0,0 km/h (0 Bft) 98 %
30.07.2016 21:50 20,8 C 20,8 C 21,1 C 76 % 1011,1 hPa 0,0 l/m 0,0 km/h (0 Bft) N 0 0 min 0,000 mm 0 W/m 16,4 C 20,8 C 0,0 km/h (0 Bft) 97 %
30.07.2016 22:00 20,5 C 20,5 C 20,8 C 77 % 1011,1 hPa 0,0 l/m 0,0 km/h (0 Bft) N 0 0 min 0,000 mm 0 W/m 16,3 C 20,5 C 0,0 km/h (0 Bft) 98 %
30.07.2016 22:10 20,2 C 20,2 C 20,5 C 79 % 1011,2 hPa 0,0 l/m 0,0 km/h (0 Bft) N 0 0 min 0,000 mm 0 W/m 16,4 C 20,2 C 0,0 km/h (0 Bft) 97 %
30.07.2016 22:20 19,9 C 19,9 C 20,2 C 80 % 1011,1 hPa 0,0 l/m 0,0 km/h (0 Bft) N 0 0 min 0,000 mm 0 W/m 16,3 C 19,9 C 0,0 km/h (0 Bft) 98 %
30.07.2016 22:30 19,7 C 19,7 C 19,9 C 81 % 1011,1 hPa 0,0 l/m 0,0 km/h (0 Bft) N 0 0 min 0,000 mm 0 W/m 16,3 C 19,7 C 0,0 km/h (0 Bft) 97 %
30.07.2016 22:40 19,4 C 19,4 C 19,7 C 81 % 1011,1 hPa 0,0 l/m 0,0 km/h (0 Bft) N 0 0 min 0,000 mm 0 W/m 16,1 C 19,4 C 0,0 km/h (0 Bft) 97 %
30.07.2016 22:50 19,2 C 19,2 C 19,4 C 82 % 1011,1 hPa 0,0 l/m 0,0 km/h (0 Bft) N 0 0 min 0,000 mm 0 W/m 16,0 C 19,2 C 0,0 km/h (0 Bft) 98 %
30.07.2016 23:00 19,1 C 19,1 C 19,2 C 83 % 1011,2 hPa 0,0 l/m 0,0 km/h (0 Bft) N 0 0 min 0,025 mm 0 W/m 16,1 C 19,1 C 0,0 km/h (0 Bft) 97 %
30.07.2016 23:10 18,9 C 18,9 C 19,1 C 84 % 1011,1 hPa 0,0 l/m 0,0 km/h (0 Bft) N 0 0 min 0,000 mm 0 W/m 16,1 C 18,9 C 0,0 km/h (0 Bft) 97 %
30.07.2016 23:20 18,6 C 18,6 C 18,9 C 85 % 1011,0 hPa 0,0 l/m 0,0 km/h (0 Bft) N-NW 337 0 min 0,000 mm 0 W/m 16,0 C 18,6 C 1,6 km/h (1 Bft) 98 %
30.07.2016 23:30 18,4 C 18,4 C 18,6 C 85 % 1011,0 hPa 0,0 l/m 0,0 km/h (0 Bft) N 0 0 min 0,000 mm 0 W/m 15,8 C 18,4 C 0,0 km/h (0 Bft) 97 %
30.07.2016 23:40 18,2 C 18,2 C 18,4 C 86 % 1010,9 hPa 0,0 l/m 0,0 km/h (0 Bft) N-NW 337 0 min 0,000 mm 0 W/m 15,8 C 18,2 C 1,6 km/h (1 Bft) 98 %
30.07.2016 23:50 18,1 C 18,1 C 18,2 C 87 % 1010,8 hPa 0,0 l/m 0,0 km/h (0 Bft) N 0 0 min 0,000 mm 0 W/m 15,9 C 18,1 C 0,0 km/h (0 Bft) 97 %
_ Min-Zeit 06:40 06:40 06:40 13:20 19:00 - 00:10 - - - - - 06:40 06:40 00:20 04:20
Minimum _ 14,8 C 14,8 C 15,0 C 57 % 1010,7 hPa - 0,0 km/h (0 Bft) - - - - - 13,3 C 14,9 C 0,0 km/h (0 Bft) 90 %
_ Max-Zeit 15:30 15:40 15:30 05:50 00:00 00:00 12:00 - - 08:30 14:10 14:30 13:00 15:30 15:00 00:40
Maximum _ 27,2 C 26,9 C 27,2 C 90 % 1013,2 hPa 0,0 l/m 11,3 km/h
S-SW (2 Bft)
- - 10 min 0,485 mm 1153 W/m 19,0 C 26,9 C 27,4 km/h
SW (4 Bft)
100 %
Durchschnitt _ 21,5 C 21,4 C 21,6 C 74 % 1012,1 hPa #0,0 l/m 2,6 km/h (1 Bft) W - #8:30 h #3,327 mm 373 W/m 16,5 C 21,4 C 9,0 km/h (2 Bft) 99 %
PRIVATE WETTERSTATION BILLIGHEIM-ALLFELD - www.neckar-odenwald-wetter.de - Holger Sonntag